• Join FlightAware (Why Join?)
  • Login
  • US Flag 
06:43PM EDT


 

Airport Tracker/Info


-or-


 

Live Flight TrackerFlight Track Log ✈ SKW6446 ✈ 03-May-2013 ✈ KLAX - KSMX

Flight Track Log - Related Links

Times and Time Zones

All times are in EDT time to prevent confusion due to time zone crossing. See the SKW6446 flight status page for this flight to view local times or setup timezone preferences in your user account.

Time Position Orientation Groundspeed Altitude Reporting Facility
EDT Latitude Longitude Course Direction KTS MPH feet Rate Location/Type
08:47PM 33.9486 -118.4622 296° West 140 161 2,200  Level Los Angeles Center
08:48PM 33.9644 -118.5189 289° West 177 204 3,200 1,020 Climbing Los Angeles Center
08:49PM 33.9800 -118.5728 289° West 197 227 4,300 1,440 Climbing Los Angeles Center
08:50PM 34.0156 -118.6949 284° West  Level FlightAware Approximate
08:50PM 34.0039 -118.6564 289° West 212 244 6,200  Level Los Angeles Center
08:51PM 34.0379 -118.7953 285° West  Level FlightAware Approximate
08:51PM 34.0242 -118.7269 289° West 207 238 7,900  Level Los Angeles Center
08:52PM 34.0670 -118.8926 296° West  Level FlightAware Approximate
08:52PM 34.0422 -118.7911 289° West 206 237 9,000  Level Los Angeles Center
08:53PM 34.0653 -118.8667 290° West 239 275 9,000  Level Los Angeles Center
08:54PM 34.0903 -118.9483 290° West 259 298 9,000 60 Level Los Angeles Center
08:55PM 34.1131 -119.0344 288° West 268 308 9,200 480 Climbing Los Angeles Center
08:56PM 34.1464 -119.1078 299° West 251 289 10,000 720 Climbing Los Angeles Center
08:57PM 34.1928 -119.1906 304° West 249 287 10,800 240 Climbing Los Angeles Center
08:58PM 34.2358 -119.2644 305° West 270 311 10,600 -300 Descending Los Angeles Center
08:59PM 34.2750 -119.3342 304° West 245 282 10,200 -540 Descending Los Angeles Center
09:00PM 34.3058 -119.3919 303° West 192 221 9,600 -720 Descending Los Angeles Center
09:01PM 34.3306 -119.4447 300° West 180 207 8,800 -360 Descending Los Angeles Center
09:02PM 34.3517 -119.4894 300° West 221 254 9,100 240 Climbing Los Angeles Center
09:02PM 34.3722 -119.5261 304° West 233 268 9,100 -120 Level Los Angeles Center
09:03PM 34.4006 -119.5725 307° West 255 293 9,000 -120 Descending Los Angeles Center
09:03PM 34.4164 -119.5944 311° West 254 292 9,000  Level Los Angeles Center
09:04PM 34.4386 -119.6358 303° West 262 302 9,000  Level Los Angeles Center
09:05PM 34.4556 -119.6719 300° West 265 305 9,000 -840 Level Los Angeles Center
09:05PM 34.4803 -119.7161 304° West 270 311 8,200 -1,020 Descending Los Angeles Center
09:06PM 34.4961 -119.7483 301° West 269 310 8,000 -240 Descending Los Angeles Center
09:06PM 34.5189 -119.7925 302° West 251 289 8,000  Level Los Angeles Center
09:07PM 34.5311 -119.8181 300° West 250 288 8,000  Level Los Angeles Center
09:07PM 34.5506 -119.8578 301° West 224 258 8,000  Level Los Angeles Center
09:08PM 34.5558 -119.8694 299° West 230 265 8,000 -360 Level Los Angeles Center
09:08PM 34.5947 -119.9400 304° West 219 252 7,600 -540 Descending Los Angeles Center
09:09PM 34.6031 -119.9533 307° West 224 258 7,500 -540 Descending Los Angeles Center
09:09PM 34.6356 -120.0081 306° West 230 265 7,000 -600 Descending Los Angeles Center
09:11PM 34.6806 -120.0850 305° West 231 266 6,300 -840 Descending Los Angeles Center
09:12PM 34.7217 -120.1517 307° West 234 269 5,100 -1,080 Descending Los Angeles Center
09:13PM 34.7578 -120.2139 305° West 229 264 4,100 -1,080 Descending Los Angeles Center
09:13PM 34.7797 -120.2519 305° West 210 242 3,300 -1,020 Descending Los Angeles Center
09:14PM 34.7886 -120.2694 302° West 208 239 3,100 -300 Descending Los Angeles Center
09:15PM 34.8053 -120.3233 291° West 179 206 2,900 -480 Descending Los Angeles Center
09:16PM 34.8239 -120.3661 298° West 159 183 2,200 -780 Descending Los Angeles Center
09:17PM 34.8531 -120.4011 315° West 137 158 1,500 -720 Descending Los Angeles Center